Rantoul, IL

7:45 AM CST on February 08, 2016 (GMT -0600)
Rantoul

Weather History for KTIP - May, 2014

Change the Weather History Date:

Sunday, May 25, 2014

  Actual Average (KCMI) Record (KCMI)
Temperature  
Mean Temperature 72 °F 66 °F  
Max Temperature 84 °F 78 °F 90 °F (2012)
Min Temperature 61 °F 54 °F 44 °F (2001)
Degree Days  
Heating Degree Days 0 3  
Month to date heating degree days 129  
Since 1 July heating degree days 5793  
Cooling Degree Days 8 4  
Month to date cooling degree days 56  
Year to date cooling degree days 67  
Growing Degree Days 22 (Base 50)    
Moisture  
Dew Point 51 °F    
Average Humidity 49    
Maximum Humidity 74    
Minimum Humidity 25    
Precipitation  
Precipitation 0.00 in 0.14 in 1.47 in (2011)
Month to date precipitation 3.73  
Year to date precipitation 14.34  
Sea Level Pressure  
Sea Level Pressure 30.12 in    
Wind  
Wind Speed 4 mph (SSE)    
Max Wind Speed 12 mph    
Max Gust Speed 18 mph    
Visibility 10 miles    
Events      
T = Trace of Precipitation, MM = Missing Value Source: NWS Daily Summary

Daily Weather History Graph

Daily Weather History Graph

Search for Another Location

Airport or City:

Trip Planner

Search our weather history database for the weather conditions in past years. The results will help you decide how hot, cold, wet, or windy it might be!

Date:

Astronomy

May. 25, 2014 Rise Set
Actual Time 5:28 AM CDT 8:10 PM CDT
Civil Twilight 4:56 AM CDT 8:42 PM CDT
Nautical Twilight 4:17 AM CDT 9:22 PM CDT
Astronomical Twilight 3:32 AM CDT 10:07 PM CDT
Moon 3:33 AM CDT (5/25) 5:10 PM CDT (5/25)
Length of Visible Light 15h 45m
Length of Day
14h 42m
Waning Crescent, 10% of the Moon is Illuminated
May 25
Waning Crescent
May 28
New
Jun 5
First Quarter
Jun 12
Full
Jun 19
Last Quarter

Hourly Weather History & Observations

Time (CDT) Temp. Dew Point Humidity Pressure Visibility Wind Dir Wind Speed Gust Speed Precip Events Conditions
12:15 AM 64.4 °F 52.3 °F 65% 30.14 in 10.0 mi Calm Calm - N/A   Clear
12:35 AM 64.4 °F 52.0 °F 64% 30.14 in 10.0 mi Calm Calm - N/A   Clear
12:55 AM 64.9 °F 51.6 °F 62% 30.14 in 10.0 mi Calm Calm - N/A   Clear
1:15 AM 63.7 °F 52.7 °F 67% 30.14 in 10.0 mi ENE 3.5 mph - N/A   Clear
1:35 AM 64.0 °F 52.5 °F 66% 30.13 in 10.0 mi Calm Calm - N/A   Clear
1:55 AM 61.7 °F 53.1 °F 73% 30.13 in 10.0 mi Calm Calm - N/A   Clear
2:15 AM 63.3 °F 51.4 °F 65% 30.12 in 10.0 mi ESE 4.6 mph - N/A   Clear
2:35 AM 63.5 °F 50.5 °F 63% 30.12 in 10.0 mi Calm Calm - N/A   Clear
2:55 AM 63.0 °F 51.3 °F 66% 30.13 in 10.0 mi ENE 3.5 mph - N/A   Clear
3:15 AM 63.0 °F 50.9 °F 65% 30.13 in 10.0 mi Calm Calm - N/A   Clear
3:35 AM 62.6 °F 51.8 °F 68% 30.14 in 10.0 mi Calm Calm - N/A   Clear
3:55 AM 62.6 °F 52.3 °F 69% 30.14 in 10.0 mi Calm Calm - N/A   Clear
4:15 AM 61.5 °F 53.1 °F 74% 30.14 in 10.0 mi East 4.6 mph - N/A   Clear
4:35 AM 61.9 °F 51.6 °F 69% 30.14 in 10.0 mi ENE 3.5 mph - N/A   Clear
4:55 AM 61.7 °F 52.3 °F 71% 30.14 in 10.0 mi East 4.6 mph - N/A   Clear
5:15 AM 62.2 °F 52.2 °F 70% 30.14 in 10.0 mi East 5.8 mph - N/A   Clear
5:35 AM 61.7 °F 52.9 °F 73% 30.14 in 10.0 mi East 4.6 mph - N/A   Clear
5:55 AM 62.1 °F 52.9 °F 72% 30.15 in 10.0 mi East 4.6 mph - N/A   Clear
6:15 AM 62.1 °F 53.1 °F 72% 30.15 in 10.0 mi Calm Calm - N/A   Clear
6:35 AM 62.8 °F 53.4 °F 71% 30.15 in 10.0 mi Calm Calm - N/A   Clear
6:55 AM 64.6 °F 53.2 °F 67% 30.16 in 10.0 mi ESE 4.6 mph - N/A   Clear
7:15 AM 65.3 °F 53.8 °F 66% 30.16 in 10.0 mi ESE 3.5 mph - N/A   Clear
7:35 AM 67.5 °F 54.0 °F 62% 30.16 in 10.0 mi ESE 4.6 mph - N/A   Clear
7:55 AM 69.6 °F 53.6 °F 57% 30.16 in 10.0 mi SE 5.8 mph - N/A   Clear
8:15 AM 70.9 °F 52.5 °F 52% 30.16 in 10.0 mi South 9.2 mph - N/A   Clear
8:35 AM 71.8 °F 54.0 °F 53% 30.16 in 10.0 mi SSE 6.9 mph - N/A   Clear
8:55 AM 73.4 °F 53.1 °F 49% 30.16 in 10.0 mi South 8.1 mph - N/A   Clear
9:35 AM 75.2 °F 51.8 °F 44% 30.16 in 10.0 mi South 9.2 mph - N/A   Clear
9:55 AM 76.3 °F 51.4 °F 42% 30.16 in 10.0 mi SSW 5.8 mph - N/A   Clear
10:15 AM 77.5 °F 50.9 °F 39% 30.16 in 10.0 mi SSE 5.8 mph - N/A   Clear
10:35 AM 77.7 °F 50.0 °F 38% 30.16 in 10.0 mi SSE 8.1 mph - N/A   Clear
10:55 AM 78.8 °F 50.4 °F 37% 30.15 in 10.0 mi SSW 6.9 mph - N/A   Clear
11:15 AM 79.3 °F 49.3 °F 35% 30.15 in 10.0 mi South 8.1 mph - N/A   Clear
11:35 AM 80.2 °F 48.9 °F 33% 30.14 in 10.0 mi SW 6.9 mph - N/A   Clear
11:55 AM 79.9 °F 47.8 °F 32% 30.14 in 10.0 mi South 6.9 mph 10.4 mph N/A   Clear
12:15 PM 80.2 °F 47.8 °F 32% 30.14 in 10.0 mi SW 9.2 mph 17.3 mph N/A   Clear
12:35 PM 81.1 °F 47.7 °F 31% 30.14 in 10.0 mi SSW 8.1 mph 17.3 mph N/A   Clear
12:55 PM 81.3 °F 47.3 °F 30% 30.13 in 10.0 mi SW 6.9 mph - N/A   Clear
1:15 PM 82.0 °F 45.3 °F 27% 30.13 in 10.0 mi South 5.8 mph 9.2 mph N/A   Clear
1:35 PM 81.5 °F 44.6 °F 27% 30.12 in 10.0 mi South 6.9 mph - N/A   Clear
1:55 PM 82.6 °F 43.2 °F 25% 30.12 in 10.0 mi SW 8.1 mph 16.1 mph N/A   Clear
2:15 PM 82.6 °F 46.2 °F 28% 30.11 in 10.0 mi South 8.1 mph 16.1 mph N/A   Clear
2:35 PM 83.1 °F 48.0 °F 29% 30.11 in 10.0 mi South 10.4 mph - N/A   Clear
2:55 PM 83.3 °F 46.9 °F 28% 30.10 in 10.0 mi SSE 6.9 mph 17.3 mph N/A   Clear
3:15 PM 83.7 °F 47.3 °F 28% 30.10 in 10.0 mi SSE 9.2 mph - N/A   Clear
3:35 PM 83.8 °F 48.0 °F 29% 30.09 in 10.0 mi SSW 6.9 mph - N/A   Clear
3:55 PM 84.2 °F 48.2 °F 29% 30.08 in 10.0 mi SSE 6.9 mph 18.4 mph N/A   Clear
4:15 PM 83.5 °F 47.7 °F 29% 30.08 in 10.0 mi South 10.4 mph 18.4 mph N/A   Clear
4:35 PM 83.5 °F 48.7 °F 30% 30.08 in 10.0 mi South 11.5 mph 18.4 mph N/A   Clear
4:55 PM 83.3 °F 48.2 °F 29% 30.07 in 10.0 mi SSE 11.5 mph 16.1 mph N/A   Clear
5:15 PM 82.8 °F 47.1 °F 29% 30.07 in 10.0 mi South 5.8 mph - N/A   Clear
5:35 PM 82.4 °F 47.5 °F 29% 30.07 in 10.0 mi SSE 10.4 mph - N/A   Clear
5:55 PM 82.2 °F 47.5 °F 30% 30.06 in 10.0 mi South 9.2 mph - N/A   Clear
6:15 PM 81.9 °F 48.4 °F 31% 30.06 in 10.0 mi South 9.2 mph - N/A   Clear
6:35 PM 81.0 °F 49.3 °F 33% 30.06 in 10.0 mi South 10.4 mph - N/A   Clear
6:55 PM 80.6 °F 50.7 °F 35% 30.06 in 10.0 mi South 9.2 mph - N/A   Clear
7:15 PM 79.7 °F 50.9 °F 37% 30.06 in 10.0 mi South 10.4 mph - N/A   Clear
7:35 PM 79.0 °F 52.0 °F 39% 30.06 in 10.0 mi SSE 10.4 mph - N/A   Clear
7:55 PM 77.9 °F 52.7 °F 41% 30.06 in 10.0 mi South 11.5 mph - N/A   Clear
8:15 PM 76.1 °F 54.0 °F 46% 30.06 in 10.0 mi South 9.2 mph - N/A   Clear
8:35 PM 75.4 °F 54.5 °F 48% 30.07 in 10.0 mi South 9.2 mph - N/A   Clear
8:55 PM 75.2 °F 55.4 °F 50% 30.08 in 10.0 mi South 9.2 mph - N/A   Clear
9:15 PM 73.4 °F 54.5 °F 51% 30.09 in 10.0 mi South 8.1 mph - N/A   Clear
9:35 PM 72.5 °F 54.0 °F 52% 30.09 in 10.0 mi South 6.9 mph - N/A   Clear
9:55 PM 72.5 °F 53.2 °F 51% 30.09 in 10.0 mi South 8.1 mph - N/A   Clear
10:15 PM 71.6 °F 53.4 °F 53% 30.09 in 10.0 mi South 6.9 mph - N/A   Clear
10:35 PM 70.7 °F 54.0 °F 55% 30.09 in 10.0 mi South 5.8 mph - N/A   Clear
10:55 PM 69.4 °F 54.5 °F 59% 30.09 in 10.0 mi South 4.6 mph - N/A   Clear
11:15 PM 68.9 °F 54.5 °F 60% 30.09 in 10.0 mi South 3.5 mph - N/A   Clear
11:35 PM 68.4 °F 54.5 °F 61% 30.09 in 10.0 mi Calm Calm - N/A   Clear
11:55 PM 68.2 °F 54.9 °F 62% 30.09 in 10.0 mi Calm Calm - N/A   Clear